createdAt,value
2019-04-04T00:03:06.603Z,66.44
2019-04-04T00:08:09.897Z,66.51
2019-04-04T00:13:13.212Z,66.45
2019-04-04T00:18:16.488Z,66.28
2019-04-04T00:23:19.828Z,66.88
2019-04-04T00:28:23.126Z,67.06
2019-04-04T00:33:26.422Z,67.73
2019-04-04T00:38:29.730Z,67.08
2019-04-04T00:43:33.091Z,67.57
2019-04-04T00:48:36.393Z,67.79
2019-04-04T00:53:42.714Z,67.38
2019-04-04T00:58:44.897Z,68.61
2019-04-04T01:03:48.142Z,67.64
2019-04-04T01:08:51.432Z,69.69
2019-04-04T01:13:57.615Z,69.42
2019-04-04T01:18:59.775Z,69.13
2019-04-04T01:24:03.070Z,69.42
2019-04-04T01:29:06.374Z,69.27
2019-04-04T01:34:09.690Z,68.92
2019-04-04T01:39:12.984Z,68.80
2019-04-04T01:44:16.297Z,68.76
2019-04-04T01:49:21.231Z,68.64
2019-04-04T01:54:24.620Z,68.82
2019-04-04T01:59:27.919Z,68.61
2019-04-04T02:04:31.698Z,68.45
2019-04-04T02:09:34.978Z,67.62
2019-04-04T02:14:38.279Z,68.26
2019-04-04T02:19:42.175Z,68.59
2019-04-04T02:24:45.466Z,68.20
2019-04-04T02:29:48.765Z,68.27
2019-04-04T02:34:52.144Z,68.63
2019-04-04T02:39:55.443Z,68.64
2019-04-04T02:44:58.742Z,68.56
2019-04-04T02:50:02.333Z,69.10
2019-04-04T02:55:06.217Z,69.08
2019-04-04T03:00:09.527Z,69.48
2019-04-04T03:05:12.825Z,69.85
2019-04-04T03:10:16.789Z,69.71
2019-04-04T03:15:20.188Z,70.19
2019-04-04T03:20:23.545Z,70.21
2019-04-04T03:25:26.834Z,70.40
2019-04-04T03:30:30.138Z,70.59
2019-04-04T03:35:33.460Z,70.30
2019-04-04T03:40:36.747Z,70.15
2019-04-04T03:45:40.056Z,70.42
2019-04-04T03:50:43.363Z,70.29
2019-04-04T03:55:46.663Z,70.29
2019-04-04T04:00:49.966Z,70.39
2019-04-04T04:05:53.327Z,70.34
2019-04-04T04:10:56.641Z,70.37
2019-04-04T04:16:02.442Z,69.98
2019-04-04T04:21:09.770Z,70.70
2019-04-04T04:26:10.183Z,70.51
2019-04-04T04:31:15.368Z,70.94
2019-04-04T04:36:18.533Z,71.35
2019-04-04T04:41:21.841Z,71.00
2019-04-04T04:46:25.139Z,71.11
2019-04-04T04:51:28.437Z,71.42
2019-04-04T04:56:31.946Z,71.02
2019-04-04T05:01:35.287Z,71.27
2019-04-04T05:06:38.631Z,71.33
2019-04-04T05:11:41.920Z,71.57
2019-04-04T05:16:45.222Z,71.63
2019-04-04T05:21:48.516Z,70.95
2019-04-04T05:26:51.844Z,71.20
2019-04-04T05:31:55.119Z,71.83
2019-04-04T05:36:58.420Z,70.55
2019-04-04T05:42:01.717Z,70.58
2019-04-04T05:47:05.109Z,70.53
2019-04-04T05:52:09.141Z,71.84
2019-04-04T05:57:12.577Z,70.64
2019-04-04T06:02:15.874Z,70.19
2019-04-04T06:07:19.167Z,71.27
2019-04-04T06:12:22.975Z,70.66
2019-04-04T06:17:27.513Z,70.57
2019-04-04T06:22:32.444Z,71.59
2019-04-04T06:27:35.740Z,70.61
2019-04-04T06:32:39.212Z,70.62
2019-04-04T06:37:42.598Z,70.11
2019-04-04T06:42:45.908Z,70.12
2019-04-04T06:47:49.233Z,70.77
2019-04-04T06:52:52.545Z,70.21
2019-04-04T06:57:55.839Z,69.61
2019-04-04T07:02:59.168Z,69.40
2019-04-04T07:08:02.495Z,69.23
2019-04-04T07:13:20.469Z,68.29
2019-04-04T07:18:12.253Z,67.36
2019-04-04T07:23:15.837Z,67.36
2019-04-04T07:28:19.680Z,66.34
2019-04-04T07:33:23.008Z,65.15
2019-04-04T07:38:26.647Z,64.36
2019-04-04T07:43:31.332Z,64.11
2019-04-04T07:48:34.639Z,62.36
2019-04-04T07:53:37.938Z,60.91
2019-04-04T07:58:41.237Z,58.50
2019-04-04T08:03:44.537Z,58.50
2019-04-04T08:08:47.841Z,56.72
2019-04-04T08:13:51.134Z,57.24
2019-04-04T08:18:54.544Z,55.06
2019-04-04T08:23:57.885Z,53.48
2019-04-04T08:29:01.239Z,53.44
2019-04-04T08:34:05.378Z,51.78
2019-04-04T08:39:10.350Z,49.51
2019-04-04T08:44:13.860Z,47.72
2019-04-04T08:49:17.246Z,46.84
2019-04-04T08:54:20.549Z,45.53
2019-04-04T08:59:24.246Z,44.04
2019-04-04T09:04:27.633Z,43.92
2019-04-04T09:09:34.452Z,42.38
2019-04-04T09:14:36.164Z,40.99
2019-04-04T09:19:39.468Z,38.72
2019-04-04T09:24:42.842Z,38.83
2019-04-04T09:29:46.229Z,35.74
2019-04-04T09:34:49.690Z,34.44
2019-04-04T09:39:53.024Z,35.41
2019-04-04T09:44:56.336Z,34.04
2019-04-04T09:49:59.813Z,34.21
2019-04-04T09:55:03.381Z,33.50
2019-04-04T10:00:12.880Z,33.69
2019-04-04T10:05:16.326Z,33.92
2019-04-04T10:10:19.911Z,33.92
2019-04-04T10:15:23.201Z,33.04
2019-04-04T10:20:26.569Z,32.87
2019-04-04T10:25:29.867Z,33.23
2019-04-04T10:30:33.168Z,31.59
2019-04-04T10:35:36.482Z,32.88
2019-04-04T10:40:39.781Z,31.54
2019-04-04T10:45:43.069Z,30.41
2019-04-04T10:50:46.373Z,30.54
2019-04-04T10:55:49.673Z,30.55
2019-04-04T11:00:52.974Z,28.96
2019-04-04T11:05:56.273Z,28.34
2019-04-04T11:10:59.575Z,27.90
2019-04-04T11:16:02.903Z,28.35
2019-04-04T11:21:06.257Z,28.30
2019-04-04T11:26:09.554Z,27.52
2019-04-04T11:31:12.864Z,26.69
2019-04-04T11:36:16.171Z,27.24
2019-04-04T11:41:19.471Z,27.82
2019-04-04T11:46:22.781Z,28.03
2019-04-04T11:51:26.084Z,27.42
2019-04-04T11:56:30.222Z,28.12
2019-04-04T12:01:37.962Z,28.32
2019-04-04T12:06:41.261Z,28.44
2019-04-04T12:11:44.639Z,28.25
2019-04-04T12:16:47.940Z,27.58
2019-04-04T12:21:51.316Z,27.35
2019-04-04T12:26:54.557Z,27.78
2019-04-04T12:31:57.862Z,27.86
2019-04-04T12:37:01.164Z,27.43
2019-04-04T12:42:04.638Z,27.64
2019-04-04T12:47:07.964Z,28.60
2019-04-04T12:52:11.273Z,28.50
2019-04-04T12:57:14.583Z,27.51
2019-04-04T13:02:17.889Z,27.14
2019-04-04T13:07:21.190Z,27.33
2019-04-04T13:12:24.517Z,27.12
2019-04-04T13:17:27.793Z,26.72
2019-04-04T13:22:33.987Z,26.62
2019-04-04T13:27:37.359Z,25.77
2019-04-04T13:32:40.683Z,25.40
2019-04-04T13:37:43.991Z,25.27
2019-04-04T13:42:47.287Z,24.50
2019-04-04T13:47:50.588Z,24.45
2019-04-04T13:52:53.899Z,25.13
2019-04-04T13:57:57.199Z,25.16
2019-04-04T14:03:00.507Z,24.77
2019-04-04T14:08:03.952Z,25.15
2019-04-04T14:13:07.258Z,24.42
2019-04-04T14:18:22.769Z,25.40
2019-04-04T14:23:26.092Z,25.75
2019-04-04T14:28:29.418Z,27.32
2019-04-04T14:33:32.683Z,27.61
2019-04-04T14:38:36.025Z,26.52
2019-04-04T14:43:39.334Z,25.83
2019-04-04T14:48:43.188Z,25.06
2019-04-04T14:53:46.500Z,26.00
2019-04-04T14:58:49.814Z,24.86
2019-04-04T15:03:53.139Z,33.82
2019-04-04T15:08:56.458Z,36.61
2019-04-04T15:13:59.774Z,38.16
2019-04-04T15:19:03.120Z,39.24
2019-04-04T15:24:06.493Z,41.23
2019-04-04T15:29:09.832Z,42.39
2019-04-04T15:34:13.148Z,43.88
2019-04-04T15:39:16.472Z,44.37
2019-04-04T15:44:19.778Z,45.96
2019-04-04T15:49:23.096Z,46.33
2019-04-04T15:54:26.406Z,46.11
2019-04-04T15:59:29.734Z,46.86
2019-04-04T16:04:33.009Z,47.14
2019-04-04T16:09:36.440Z,46.76
2019-04-04T16:14:39.719Z,47.91
2019-04-04T16:19:43.045Z,48.73
2019-04-04T16:24:46.359Z,49.99
2019-04-04T16:29:49.678Z,50.91
2019-04-04T16:34:52.988Z,53.35
2019-04-04T16:40:08.124Z,54.41
2019-04-04T16:45:01.358Z,55.25
2019-04-04T16:50:06.223Z,55.84
2019-04-04T16:55:09.692Z,56.40
2019-04-04T17:00:13.656Z,56.79
2019-04-04T17:05:17.048Z,57.31
2019-04-04T17:10:20.368Z,57.35
2019-04-04T17:15:23.694Z,57.81
2019-04-04T17:20:27.021Z,58.13
2019-04-04T17:25:30.340Z,58.33
2019-04-04T17:30:33.680Z,58.46
2019-04-04T17:35:37.118Z,58.58
2019-04-04T17:40:40.382Z,58.61
2019-04-04T17:45:43.914Z,58.84
2019-04-04T17:50:47.233Z,58.84
2019-04-04T17:55:50.740Z,59.43
2019-04-04T18:00:54.056Z,59.36
2019-04-04T18:05:57.363Z,59.69
2019-04-04T18:11:00.685Z,60.34
2019-04-04T18:16:04.082Z,60.44
2019-04-04T18:21:07.394Z,60.23
2019-04-04T18:26:10.714Z,59.93
2019-04-04T18:31:14.033Z,59.69
2019-04-04T18:36:17.402Z,59.99
2019-04-04T18:41:20.690Z,60.00
2019-04-04T18:46:24.049Z,59.37
2019-04-04T18:51:27.356Z,58.84
2019-04-04T18:56:31.151Z,58.83
2019-04-04T19:01:34.535Z,58.75
2019-04-04T19:06:37.902Z,58.76
2019-04-04T19:11:41.403Z,58.87
2019-04-04T19:16:44.731Z,58.69
2019-04-04T19:21:48.120Z,58.96
2019-04-04T19:26:51.447Z,59.35
2019-04-04T19:31:54.772Z,59.36
2019-04-04T19:36:58.165Z,59.61
2019-04-04T19:42:01.491Z,59.47
2019-04-04T19:47:05.914Z,59.63
2019-04-04T19:52:09.299Z,59.39
2019-04-04T19:57:12.616Z,59.77
2019-04-04T20:02:15.935Z,60.13
2019-04-04T20:07:19.247Z,60.91
2019-04-04T20:12:22.563Z,60.74
2019-04-04T20:17:25.881Z,60.56
2019-04-04T20:22:29.264Z,60.32
2019-04-04T20:27:32.600Z,61.38
2019-04-04T20:32:35.917Z,60.68
2019-04-04T20:37:39.231Z,60.95
2019-04-04T20:42:42.555Z,61.15
2019-04-04T20:47:45.879Z,61.60
2019-04-04T20:52:49.189Z,61.87
2019-04-04T20:57:52.505Z,62.14
2019-04-04T21:02:55.895Z,61.94
2019-04-04T21:07:59.285Z,62.36
2019-04-04T21:13:02.578Z,62.14
2019-04-04T21:18:05.874Z,61.85
2019-04-04T21:23:09.238Z,62.35
2019-04-04T21:28:12.538Z,61.65
2019-04-04T21:33:15.849Z,61.69
2019-04-04T21:38:19.139Z,61.64
2019-04-04T21:43:22.427Z,61.55
2019-04-04T21:48:25.724Z,62.41
2019-04-04T21:53:29.019Z,62.30
2019-04-04T21:58:32.712Z,62.52
2019-04-04T22:03:36.793Z,61.95
2019-04-04T22:08:40.248Z,62.25
2019-04-04T22:13:43.555Z,61.63
2019-04-04T22:18:46.843Z,61.63
2019-04-04T22:23:50.132Z,62.42
2019-04-04T22:28:53.435Z,62.27
2019-04-04T22:33:56.734Z,62.41
2019-04-04T22:39:00.280Z,62.84
2019-04-04T22:44:03.998Z,63.10
2019-04-04T22:49:07.268Z,62.58
2019-04-04T22:54:10.576Z,62.40
2019-04-04T22:59:13.881Z,63.00
2019-04-04T23:04:17.183Z,64.04
2019-04-04T23:09:20.490Z,64.24
2019-04-04T23:14:23.783Z,64.26
2019-04-04T23:19:27.081Z,65.44
2019-04-04T23:24:30.575Z,64.81
2019-04-04T23:29:33.896Z,65.59
2019-04-04T23:34:37.164Z,65.65
2019-04-04T23:39:40.644Z,65.48
2019-04-04T23:44:44.122Z,66.57
2019-04-04T23:49:47.474Z,67.34
2019-04-04T23:54:50.776Z,67.84
2019-04-04T23:59:54.082Z,68.02
